Date,TemperatureHighF,TemperatureAvgF,TemperatureLowF,DewpointHighF,DewpointAvgF,DewpointLowF,HumidityHigh,HumidityAvg,HumidityLow,PressureMaxIn,PressureMinIn,WindSpeedMaxMPH,WindSpeedAvgMPH,GustSpeedMaxMPH,PrecipitationSumIn
2013-1-1,41.4,36.2,28.3,29.7,26.6,20.4,77,68,61,30.07,29.96,5,1,5,0.00
2013-1-2,37.6,32.8,25.0,28.5,19.7,13.1,78,59,42,30.26,30.04,8,2,10,0.00
2013-1-3,40.9,29.0,18.4,20.5,17.3,12.2,82,62,44,30.28,30.17,14,1,14,0.00
2013-1-4,42.5,35.5,31.0,21.9,19.3,17.1,59,52,40,30.25,30.16,19,4,19,0.00
2013-1-5,47.2,38.0,31.1,26.3,20.1,17.3,63,49,35,30.41,30.20,14,2,14,0.00
2013-1-6,46.4,38.9,28.4,29.9,26.3,21.5,78,61,47,30.21,30.07,8,1,8,0.00
2013-1-7,43.7,36.6,25.6,29.7,24.4,18.3,80,62,47,30.50,30.20,13,2,13,0.00
2013-1-8,56.0,36.0,23.6,33.0,25.4,18.9,85,68,36,30.44,30.37,8,1,8,0.00
2013-1-9,54.0,39.8,25.6,41.2,30.4,20.3,85,71,37,30.45,30.27,13,1,13,0.00
2013-1-10,56.2,46.2,38.0,31.3,28.4,25.1,69,50,37,30.64,30.45,14,2,14,0.00
2013-1-11,51.3,43.2,37.8,40.8,33.2,27.0,94,69,50,30.51,30.13,10,2,10,0.07
2013-1-12,56.2,44.6,39.6,49.7,41.8,37.7,94,90,78,30.22,30.13,5,1,5,0.00
2013-1-13,63.7,50.8,38.7,55.3,46.8,36.5,94,86,72,30.14,29.99,7,1,7,0.00
2013-1-14,62.3,51.0,38.5,56.2,43.7,34.4,91,76,60,30.37,30.00,11,2,11,0.32
2013-1-15,39.2,37.2,34.0,35.8,34.1,32.1,93,88,79,30.40,30.19,7,1,7,0.60
2013-1-16,39.8,36.5,33.3,37.6,34.4,31.1,94,92,90,30.19,29.88,6,1,8,0.38
2013-1-17,43.2,38.9,33.7,37.8,31.4,25.7,94,75,56,30.18,30.03,8,1,8,0.00
2013-1-18,39.6,34.0,29.5,29.3,17.5,10.9,84,51,33,30.52,30.12,16,3,16,0.00
2013-1-19,58.9,42.3,25.6,29.8,23.6,18.7,77,50,25,30.40,29.97,14,4,14,0.01
2013-1-20,55.1,41.9,28.8,31.1,18.0,6.3,73,41,18,30.12,29.88,25,4,25,0.00
2013-1-21,45.2,32.3,22.7,19.9,15.0,7.2,70,50,29,30.13,29.84,24,3,24,0.00
2013-1-22,27.0,18.8,14.6,9.4,-2.0,-5.1,48,40,31,30.31,30.00,20,5,21,0.00
2013-1-23,25.6,18.2,12.6,0.6,-0.9,-2.9,54,43,31,30.35,30.22,15,4,15,0.00
2013-1-25,26.3,20.8,19.4,16.1,14.5,8.0,83,77,48,28.79,28.68,9,1,9,0.00
2013-1-26,33.7,26.4,18.4,25.8,19.9,13.1,84,77,62,30.43,28.69,7,1,7,0.02
2013-1-27,39.2,30.0,20.3,22.2,17.8,11.7,75,61,47,30.57,30.42,8,1,8,0.00
2013-1-28,50.0,38.4,29.2,42.8,33.4,21.6,91,82,71,30.43,30.05,5,1,6,0.19
2013-1-29,72.7,59.0,46.3,54.2,48.8,41.3,89,70,51,30.12,29.94,8,2,8,0.00
2013-1-30,68.9,57.4,48.8,58.9,52.4,42.8,95,84,67,29.94,29.25,19,2,19,2.15
2013-1-31,56.0,39.5,29.7,53.6,24.6,11.4,95,56,39,29.90,29.19,26,8,26,0.20
2013-2-1,29.7,23.9,15.8,22.3,8.1,1.5,81,51,35,30.36,29.80,23,5,23,0.00
2013-2-2,29.5,20.8,11.0,21.5,10.9,2.0,82,66,47,30.36,29.99,9,1,9,0.00
2013-2-3,33.8,29.2,24.3,28.4,22.3,11.1,86,76,47,29.99,29.80,23,2,23,0.01
2013-2-4,40.1,30.8,20.7,20.9,14.8,10.2,69,52,38,30.08,29.86,16,2,16,0.00
2013-2-5,39.4,33.6,28.3,32.1,27.2,18.5,91,77,66,29.94,29.83,6,1,6,0.00
2013-2-6,45.9,36.1,25.7,32.0,26.9,19.0,92,70,47,30.33,29.92,14,2,14,0.00
2013-2-7,38.5,32.7,22.1,27.4,22.8,17.4,86,68,54,30.40,30.17,10,2,10,0.00
2013-2-8,40.9,34.8,31.1,34.8,28.6,20.6,90,79,60,30.18,29.79,20,3,20,0.07
2013-2-9,43.0,33.0,21.8,21.0,16.9,11.5,74,53,31,30.39,29.99,24,5,24,0.01
2013-2-10,45.0,32.4,16.2,24.9,16.6,10.7,87,56,33,30.44,30.17,10,2,10,0.00
2013-2-11,66.8,50.3,34.7,51.0,35.2,20.6,91,62,22,30.18,29.71,21,4,21,0.09
2013-2-12,58.9,47.9,33.8,28.7,24.4,20.7,61,41,28,29.99,29.85,23,4,23,0.00
2013-2-13,43.7,34.8,28.6,31.8,26.6,19.4,92,73,55,29.94,29.67,9,1,9,0.05
2013-2-14,49.9,38.4,30.6,31.4,27.6,23.0,92,67,42,30.01,29.79,9,2,9,0.17
2013-2-15,56.5,39.6,29.3,35.7,30.2,23.9,92,71,40,30.03,29.92,14,1,14,0.23
2013-2-16,37.8,33.4,27.7,31.5,23.4,12.2,92,68,50,30.00,29.87,10,2,10,0.01
2013-2-17,31.0,25.4,22.5,14.3,9.1,3.9,64,50,38,30.22,29.88,22,6,22,0.00
2013-2-18,46.3,32.0,16.9,20.1,11.1,4.6,64,43,24,30.36,30.09,14,2,14,0.00
2013-2-19,54.4,41.2,31.5,40.0,28.2,18.6,81,60,48,30.09,29.67,21,6,21,0.06
2013-2-20,38.2,31.5,23.9,20.3,13.6,8.8,54,47,37,30.17,29.86,23,6,23,0.00
2013-2-21,38.9,28.5,22.7,16.8,12.9,8.2,69,52,39,30.33,30.13,14,3,14,0.00
2013-2-22,32.8,29.8,24.8,27.1,21.8,15.0,80,72,61,30.36,30.15,8,2,8,0.00
2013-2-23,50.2,38.5,32.6,39.6,32.2,26.8,89,78,64,30.16,29.83,7,1,7,0.00
2013-2-24,51.7,39.9,30.4,36.3,27.6,16.4,93,65,36,30.14,29.82,17,3,17,0.00
2013-2-25,47.2,33.6,23.6,23.3,19.2,15.7,79,57,35,30.22,30.13,8,1,8,0.00
2013-2-26,39.8,33.5,24.7,37.6,28.3,16.6,93,81,64,30.19,29.64,13,3,13,0.63
2013-2-27,54.2,43.8,36.7,42.2,34.2,30.3,93,71,45,29.71,29.58,17,3,17,0.02
2013-2-28,43.6,40.4,36.5,34.3,27.1,23.8,80,59,48,29.75,29.65,15,4,15,0.00
2013-3-1,40.5,37.6,33.3,27.6,25.0,21.4,66,60,53,29.91,29.75,13,4,14,0.00
2013-3-2,35.5,31.9,29.2,21.7,19.7,17.7,66,61,52,29.91,29.83,16,2,16,0.00
2013-3-3,39.2,32.3,28.6,19.9,17.4,13.2,65,55,41,29.96,29.84,21,4,21,0.00
2013-3-4,44.8,34.1,25.9,17.3,14.5,11.7,57,45,30,30.05,29.95,20,5,20,0.00
2013-3-5,52.2,40.8,31.0,30.3,19.9,13.3,90,45,24,30.06,29.79,11,3,12,0.00
2013-3-6,39.6,35.2,32.0,33.2,30.4,28.2,91,83,65,30.04,29.67,15,3,15,0.35
2013-3-7,47.0,40.5,36.5,30.8,27.9,25.8,70,61,48,30.19,30.03,15,3,15,0.00
2013-3-8,45.7,38.7,32.8,29.3,26.4,23.7,72,61,51,30.32,30.16,17,4,17,0.00
2013-3-9,60.1,40.0,24.5,30.9,25.1,19.5,86,59,25,30.38,30.25,9,1,9,0.00
2013-3-10,63.5,46.8,27.4,31.3,26.5,22.1,84,51,27,30.29,30.17,11,2,11,0.00
2013-3-11,58.3,50.8,43.2,47.8,35.5,21.9,76,57,33,30.18,29.86,13,3,13,0.00
2013-3-12,56.9,50.5,39.6,50.5,40.5,27.4,89,70,49,29.98,29.75,15,4,15,0.65
2013-3-13,47.5,38.3,29.5,29.9,23.4,17.3,82,56,33,30.09,29.92,20,4,20,0.00
2013-3-14,44.5,36.3,29.9,18.5,16.2,12.8,60,45,33,30.16,30.06,22,6,22,0.00
2013-3-15,58.5,43.0,29.5,33.4,22.9,15.5,62,46,32,30.10,29.79,11,2,11,0.00
2013-3-16,56.7,44.0,36.5,43.5,35.5,29.1,83,72,55,29.92,29.62,12,2,12,0.01
2013-3-17,38.5,36.5,35.3,31.9,29.0,23.9,84,75,58,30.25,29.92,10,2,10,0.00
2013-3-18,35.3,32.3,30.2,30.9,29.2,26.8,92,88,73,30.28,29.88,9,2,9,0.26
2013-3-19,58.0,42.9,32.4,41.3,24.8,7.6,93,59,17,29.94,29.72,28,5,28,0.17
2013-3-20,51.5,42.0,33.1,27.5,14.5,9.9,68,34,21,29.99,29.76,18,5,18,0.00
2013-3-21,35.6,31.1,27.2,25.9,13.4,7.9,69,48,35,29.91,29.79,20,4,20,0.00
2013-3-22,48.6,35.7,26.6,21.8,15.2,9.6,65,44,30,30.01,29.88,18,4,18,0.00
2013-3-23,55.6,39.0,21.8,23.1,19.1,14.3,84,49,24,30.04,29.91,15,2,15,0.00
2013-3-24,40.7,32.9,26.6,28.8,23.6,18.1,88,69,46,30.00,29.63,9,1,9,0.00
2013-3-25,39.4,34.2,31.1,33.1,30.6,27.8,91,87,76,29.71,29.53,5,1,5,0.29
2013-3-26,47.9,39.5,31.7,33.0,28.6,25.8,92,67,46,30.04,29.71,12,2,17,0.00
2013-3-27,47.7,40.0,31.5,31.1,26.7,23.0,72,59,41,30.14,30.02,19,4,19,0.00
2013-3-28,49.0,41.7,36.2,29.1,26.9,24.0,67,56,44,30.24,30.10,15,4,15,0.00
2013-3-29,56.7,44.9,34.9,32.5,27.8,22.8,77,53,29,30.26,30.15,12,2,12,0.00
2013-3-30,61.6,45.1,32.4,30.8,25.7,21.1,78,50,23,30.24,30.09,9,1,9,0.00
2013-3-31,50.2,45.7,36.9,44.6,36.5,23.5,91,72,45,30.10,29.75,6,1,6,0.13
2013-4-1,58.7,45.4,35.5,42.8,33.5,18.5,92,65,40,30.01,29.76,22,3,22,0.00
2013-4-2,49.0,39.8,29.9,19.0,14.5,10.6,53,37,23,30.17,30.00,14,3,14,0.00
2013-4-3,51.7,38.7,26.6,19.5,15.0,10.3,72,41,21,30.38,30.17,16,3,16,0.00
2013-4-4,49.0,35.7,20.3,32.3,16.0,9.0,84,49,20,30.39,30.05,10,2,10,0.01
2013-4-5,65.9,48.4,33.8,40.2,30.4,23.1,90,59,23,30.05,29.84,14,3,14,0.02
2013-4-19,73.4,58.2,52.9,62.3,50.5,39.0,87,76,61,29.82,29.63,12,2,12,0.53
2013-4-20,60.5,51.3,43.0,40.3,28.0,23.6,64,42,27,30.36,29.81,19,5,19,0.00
2013-4-21,54.4,43.9,33.1,29.5,26.0,22.0,71,51,33,30.58,30.36,13,2,13,0.00
2013-4-22,58.5,44.4,32.8,35.9,31.3,25.8,82,62,39,30.54,30.37,12,2,12,0.00
2013-4-23,61.6,46.8,36.4,44.8,37.4,30.8,82,71,51,30.39,30.09,10,2,10,0.00
2013-4-24,78.5,58.6,40.5,56.9,46.6,36.6,90,67,38,30.10,29.77,21,3,21,0.07
2013-4-25,67.0,53.5,42.8,39.7,31.9,26.4,66,46,22,30.32,30.07,14,2,15,0.00
2013-4-26,65.9,51.9,37.4,40.2,35.2,29.9,80,55,34,30.48,30.30,9,2,9,0.00
2013-4-27,72.4,57.5,40.0,45.0,39.1,32.5,82,53,30,30.40,30.25,8,2,8,0.00
2013-4-28,58.0,54.6,52.2,48.3,43.5,38.5,84,67,50,30.26,30.12,10,2,10,0.12
2013-4-29,61.9,56.0,52.4,56.1,51.5,45.7,91,85,70,30.12,30.02,9,2,9,0.11
2013-4-30,61.0,56.4,53.1,56.2,52.8,49.8,93,88,80,30.30,30.10,11,3,11,0.00
2013-5-1,71.5,59.9,49.3,50.1,42.0,33.5,86,55,26,30.41,30.29,10,2,10,0.00
2013-5-2,70.2,56.1,39.4,48.2,42.1,34.7,87,62,37,30.42,30.31,12,3,12,0.00
2013-5-3,70.2,54.8,40.7,49.2,42.0,35.6,90,65,38,30.38,30.26,11,3,11,0.00
2013-5-4,68.8,54.7,38.7,46.6,41.3,33.3,86,63,39,30.33,30.16,12,3,12,0.00
2013-5-5,64.4,52.3,38.3,42.7,39.0,33.0,86,62,40,30.23,30.12,13,3,13,0.00
2013-5-6,57.8,52.4,43.0,55.6,48.4,37.4,93,86,70,30.17,30.04,11,4,11,0.10
2013-5-7,62.5,58.7,54.5,59.9,56.5,52.4,94,92,88,30.05,29.92,14,6,14,1.53
2013-5-8,72.4,57.5,50.6,57.4,52.4,48.4,95,84,44,30.01,29.92,13,2,13,0.15
2013-5-9,76.7,60.7,47.7,59.1,52.6,45.9,94,77,46,30.03,29.92,13,2,13,0.01
2013-5-10,85.0,66.4,51.1,62.0,55.9,48.0,92,72,36,30.03,29.85,22,2,22,0.96
2013-5-11,78.1,66.8,59.6,64.4,57.8,51.0,93,75,46,29.90,29.74,15,2,15,0.01
2013-5-12,63.0,57.1,43.9,51.6,35.7,26.2,70,47,27,30.05,29.79,19,4,19,0.00
2013-5-13,58.9,49.4,39.2,36.5,29.3,21.5,79,48,27,30.18,30.03,21,3,21,0.00
2013-5-14,66.1,51.1,34.6,41.2,34.9,28.1,89,57,30,30.23,30.01,8,1,8,0.00
2013-5-15,92.5,69.9,47.2,63.9,49.9,38.8,82,53,23,30.01,29.70,17,3,17,0.00
2013-5-16,79.2,73.5,64.8,61.2,55.5,50.0,71,54,37,29.97,29.79,19,4,19,0.02
2013-5-17,82.8,69.3,53.1,61.3,55.2,48.7,91,63,40,30.12,29.96,8,2,8,0.00
2013-5-18,67.9,63.6,59.6,59.9,56.7,54.0,90,78,68,30.22,30.11,8,2,8,0.00
2013-5-19,71.5,64.1,58.1,62.8,59.4,55.5,93,85,73,30.20,30.09,9,2,9,0.02
2013-5-20,82.6,72.2,61.9,68.0,64.5,59.4,93,78,58,30.12,29.99,9,1,9,0.02
2013-5-21,88.4,75.3,62.3,70.6,65.5,59.4,91,73,50,30.01,29.87,9,2,9,0.01
2013-5-22,90.0,75.2,65.2,68.4,64.7,59.5,92,72,39,29.95,29.83,22,2,22,0.23
2013-5-23,79.4,67.1,60.8,67.6,62.7,58.6,93,86,64,29.92,29.76,24,2,24,1.11
2013-5-24,61.7,55.1,45.9,59.9,44.1,30.8,94,68,46,30.22,29.79,19,4,19,0.00
2013-5-25,65.3,53.3,42.1,38.6,34.2,30.0,67,50,32,30.25,30.13,20,4,20,0.00
2013-5-26,73.8,55.9,44.1,42.3,35.5,30.9,70,49,23,30.25,30.15,13,2,13,0.00
2013-5-27,66.4,56.4,41.8,52.2,44.9,36.3,90,67,45,30.30,30.19,7,1,7,0.00
2013-5-28,83.9,67.1,52.0,66.3,57.4,47.6,92,73,50,30.20,30.05,10,2,10,0.01
2013-5-29,88.6,76.3,64.6,67.4,62.8,56.9,88,66,35,30.14,30.08,10,2,10,0.00
2013-5-30,91.8,78.1,65.2,69.9,64.3,60.0,88,65,38,30.21,30.11,8,1,8,0.01
2013-5-31,90.9,77.6,61.0,65.7,62.1,54.9,89,62,35,30.17,30.02,9,2,9,0.00
2013-6-1,90.2,79.8,67.7,68.7,64.8,61.1,82,62,45,30.06,29.92,10,2,10,0.00
2013-6-2,82.1,73.9,68.8,69.0,65.0,60.1,91,75,61,29.93,29.86,11,2,11,1.16
2013-6-3,80.6,71.4,64.1,67.7,62.6,53.3,94,75,54,30.01,29.87,10,1,10,0.39
2013-6-4,76.0,64.3,52.2,53.7,48.6,43.2,84,59,35,30.16,30.01,10,2,10,0.00
2013-6-5,79.2,66.6,53.5,59.6,54.8,49.1,89,68,42,30.18,30.03,9,2,9,0.00
2013-6-6,67.3,64.2,61.6,62.9,57.2,50.1,93,79,61,30.06,29.86,10,2,10,0.74
2013-6-7,67.9,65.3,63.4,65.3,63.0,60.7,93,92,90,29.86,29.66,7,2,7,0.46
2013-6-8,80.8,69.6,59.9,64.4,60.8,56.4,90,75,50,30.11,29.78,8,1,8,0.00
2013-6-9,77.8,69.1,59.0,70.2,62.8,55.8,92,81,69,30.21,30.09,8,2,8,0.03
2013-6-10,81.0,70.5,66.1,73.2,66.9,63.8,94,89,71,30.11,29.81,15,2,15,0.62
2013-6-11,80.5,72.1,62.3,65.9,62.8,60.1,94,74,55,29.89,29.82,18,3,18,0.00
2013-6-12,89.3,78.0,65.5,72.5,64.9,59.6,88,66,45,29.91,29.81,11,3,11,0.00
2013-6-13,83.3,70.9,66.2,69.2,64.7,56.1,93,81,60,29.82,29.51,18,3,21,1.20
2013-6-14,80.1,70.1,62.3,56.6,53.7,50.9,70,57,37,30.03,29.68,12,3,12,0.00
2013-6-15,84.1,70.7,58.9,60.5,55.2,48.1,83,61,31,30.11,30.01,11,2,11,0.00
2013-6-16,80.8,71.5,61.0,67.3,60.9,55.4,86,70,55,30.05,29.91,12,2,12,0.00
2013-6-17,86.8,75.9,65.0,70.5,65.1,59.9,88,70,51,29.99,29.90,9,2,9,0.03
2013-6-18,74.9,69.3,66.1,68.8,65.5,63.0,93,88,80,29.94,29.82,5,1,5,1.17
2013-6-19,77.8,68.9,61.7,64.9,61.3,57.5,93,78,55,30.16,29.91,8,2,8,0.00
2013-6-20,79.2,69.9,60.5,65.8,61.1,55.3,93,75,56,30.26,30.15,11,2,11,0.00
2013-6-21,83.3,72.7,58.3,63.2,57.3,50.8,83,60,45,30.29,30.22,8,2,8,0.00
2013-6-22,81.4,67.0,59.6,65.4,58.9,54.9,89,76,58,30.26,30.23,5,1,6,0.00
2013-6-23,89.8,71.8,63.7,70.6,64.8,60.0,92,80,39,30.20,30.08,6,1,6,0.00
2013-6-24,91.3,77.1,68.4,70.8,66.2,61.6,85,70,43,30.16,30.05,21,2,21,0.00
2013-6-25,92.2,79.3,67.0,71.5,66.8,59.2,86,67,46,30.07,29.92,12,2,12,0.11
2013-6-26,83.3,72.6,64.8,71.5,66.2,60.8,91,81,64,29.96,29.86,6,1,6,0.00
2013-6-27,83.7,74.8,68.0,74.6,68.3,64.6,93,81,62,29.86,29.65,9,2,10,0.19
2013-6-28,87.5,75.2,68.0,73.0,65.6,60.7,87,73,49,29.67,29.53,20,3,20,0.82
2013-6-29,87.7,74.8,65.7,67.0,62.2,58.9,91,67,40,29.75,29.55,22,2,22,0.29
2013-6-30,87.5,75.3,66.2,73.3,68.1,63.0,94,79,57,29.86,29.72,11,2,11,0.00
2013-7-1,83.5,76.1,71.1,71.1,68.5,66.2,87,78,65,29.98,29.85,10,2,10,0.03
2013-7-2,82.8,75.9,71.8,72.5,69.3,66.7,91,80,67,30.16,29.97,10,2,10,0.01
2013-7-3,83.7,76.0,71.8,73.8,69.9,67.1,91,82,67,30.24,30.15,8,2,8,0.13
2013-7-4,87.1,79.0,68.9,73.7,69.9,65.9,91,75,60,30.26,30.17,10,2,10,0.00
2013-7-5,90.2,80.3,70.4,73.4,69.5,66.0,90,71,49,30.23,30.13,14,3,14,0.09
2013-7-6,92.2,81.5,71.8,73.4,69.7,66.2,87,69,48,30.22,30.08,8,2,8,0.00
2013-7-7,89.8,76.7,69.8,74.7,68.5,64.5,92,77,55,30.13,30.02,21,2,21,0.27
2013-7-8,86.8,76.2,67.7,69.4,66.6,62.8,92,74,49,30.15,30.06,10,3,10,0.36
2013-7-9,86.0,76.5,70.4,71.4,68.2,65.8,88,76,57,30.14,30.02,10,2,10,0.00
2013-7-10,86.4,77.7,72.9,74.4,69.9,66.1,89,78,62,30.03,29.89,12,2,12,0.01
2013-7-11,85.5,77.0,71.3,69.1,67.3,63.2,88,73,53,29.97,29.88,8,2,8,0.02
2013-7-12,74.2,68.3,64.8,67.2,64.3,61.8,93,87,71,30.10,29.94,7,1,7,0.65
2013-7-13,82.8,74.2,66.6,71.6,67.8,64.4,94,81,63,30.28,30.08,7,2,7,0.00
2013-7-14,88.9,79.1,70.0,72.5,69.5,66.9,93,74,51,30.35,30.27,7,1,7,0.01
2013-7-15,94.3,80.8,68.4,75.2,70.3,65.5,92,72,48,30.35,30.23,6,1,6,0.01
2013-7-16,93.1,81.5,71.1,75.5,71.6,68.0,91,73,52,30.30,30.21,11,2,11,0.00
2013-7-17,92.9,82.4,72.7,76.0,72.0,67.8,91,73,49,30.27,30.13,9,2,9,0.00
2013-7-18,95.9,84.2,73.4,76.4,73.6,70.0,91,72,46,30.17,30.04,5,2,5,0.00
2013-7-19,95.8,82.1,73.1,76.5,71.9,66.6,89,73,49,30.06,29.91,17,2,17,0.00
2013-7-20,92.9,80.6,71.5,73.4,69.2,66.3,88,70,47,29.94,29.83,9,3,9,0.00
2013-7-21,87.1,77.1,73.1,71.3,69.4,66.9,85,77,56,29.99,29.91,7,2,7,0.07
2013-7-22,76.0,71.3,70.4,72.5,68.6,67.5,94,92,86,29.85,29.80,12,2,12,0.70
2013-7-23,88.2,77.5,69.7,72.5,68.2,65.4,94,75,49,29.80,29.69,15,2,15,0.57
2013-7-24,83.9,74.8,66.2,67.0,62.3,56.1,88,66,46,29.96,29.72,8,2,8,0.00
2013-7-25,79.4,67.8,58.3,59.0,54.9,50.8,86,65,42,30.08,29.95,12,2,12,0.00
2013-7-26,83.5,69.3,55.6,62.6,57.5,52.4,92,69,41,30.13,30.04,7,2,7,0.00
2013-7-27,79.9,71.8,62.5,69.3,65.0,58.6,90,80,68,30.06,29.93,9,2,9,0.00
2013-7-28,85.5,74.0,66.1,68.3,65.5,61.8,92,76,49,30.03,29.89,7,2,7,0.18
2013-7-29,80.6,69.2,55.8,64.0,56.5,51.7,92,67,41,30.20,30.02,10,1,10,0.01
2013-7-30,82.4,69.6,57.4,62.9,58.3,53.1,90,69,45,30.25,30.16,7,1,7,0.00
2013-7-31,79.6,68.5,60.1,67.9,63.0,56.9,93,83,66,30.17,30.02,11,1,11,0.45
2013-8-1,85.1,71.9,65.5,70.2,66.0,63.3,94,83,56,30.02,29.84,8,2,8,0.12
2013-8-2,85.7,73.1,63.2,66.9,61.6,55.1,93,70,38,30.00,29.91,11,2,11,0.01
2013-8-3,72.7,68.2,64.4,67.0,63.1,59.3,93,84,75,30.00,29.96,7,1,7,0.31
2013-8-4,80.8,70.1,60.3,63.1,58.5,52.3,95,70,40,30.07,29.97,14,2,14,0.01
2013-8-5,80.3,67.0,55.1,59.9,55.6,50.6,91,69,40,30.14,30.03,6,1,6,0.00
2013-8-6,79.0,69.7,62.8,67.0,62.9,58.5,93,79,64,30.08,30.00,7,1,7,0.07
2013-8-7,83.2,73.1,64.3,71.0,67.6,61.4,93,83,64,30.07,29.99,7,1,7,0.10
2013-8-8,81.7,74.7,67.7,73.2,70.1,65.5,94,86,73,30.04,29.97,6,1,6,0.08
2013-8-9,86.6,78.3,72.5,74.8,71.2,68.5,92,79,64,30.01,29.91,9,2,9,0.00
2013-8-10,85.1,75.1,67.3,69.0,65.4,59.2,91,74,44,30.11,29.99,5,1,6,0.01
2013-8-11,85.5,75.5,67.7,69.8,66.7,63.8,92,76,52,30.13,30.02,7,1,7,0.00
2013-8-12,88.0,77.7,67.7,70.1,67.0,63.7,94,72,47,30.05,29.93,12,2,12,0.01
2013-8-13,86.8,74.4,67.7,70.9,67.0,60.0,93,79,51,29.93,29.78,12,2,12,0.48
2013-8-14,74.5,65.5,56.9,60.5,51.2,47.4,78,61,44,30.14,29.88,15,3,15,0.00
2013-8-15,77.4,63.1,50.6,55.3,50.7,47.3,90,68,36,30.21,30.11,8,1,8,0.00
2013-8-16,79.6,64.9,51.3,59.3,53.8,47.6,93,70,41,30.22,30.14,10,1,10,0.01
2013-8-17,79.6,65.8,50.8,61.4,56.1,47.6,92,73,47,30.29,30.21,8,1,8,0.00
2013-8-18,70.4,64.8,61.7,61.6,60.0,58.2,92,84,70,30.27,30.20,8,1,8,0.11
2013-8-19,79.6,68.1,60.1,69.3,63.0,57.4,94,84,66,30.20,30.07,6,1,6,0.01
2013-8-20,87.5,72.9,62.6,70.7,64.3,59.8,95,77,48,30.20,30.11,6,1,6,0.00
2013-8-21,87.5,74.2,63.5,72.5,66.6,60.5,92,78,57,30.22,30.09,13,2,13,0.10
2013-8-22,86.4,73.9,66.6,69.2,65.5,63.4,93,77,51,30.12,29.97,14,2,14,0.01
2013-8-23,73.8,68.3,61.0,66.1,63.4,57.7,93,85,69,30.16,29.97,8,1,8,0.80
2013-8-24,81.4,66.6,56.0,64.4,58.1,53.4,96,77,44,30.35,30.15,8,1,8,0.01
2013-8-25,81.9,67.9,55.3,64.2,58.1,52.4,93,73,46,30.42,30.27,8,1,8,0.01
2013-8-26,86.9,73.1,62.1,64.3,61.2,57.3,87,69,42,30.30,30.04,11,2,11,0.00
2013-8-27,85.3,77.3,67.7,71.4,66.7,61.4,83,70,60,30.05,29.93,13,3,13,0.00
2013-8-28,75.6,72.8,70.6,71.6,69.0,66.6,93,88,80,29.96,29.83,8,1,8,0.34
2013-8-29,84.8,74.8,67.9,71.3,68.7,64.2,93,82,58,30.04,29.87,9,2,9,0.00
2013-8-30,87.7,75.3,64.8,71.7,67.3,62.7,94,78,54,30.06,29.90,9,2,9,0.01
2013-8-31,89.5,78.3,69.1,72.6,68.6,65.4,91,74,51,29.91,29.81,8,2,8,0.00
2013-9-1,90.4,75.3,66.2,71.8,67.1,63.2,93,77,48,29.89,29.79,11,1,11,0.00
2013-9-2,71.5,70.4,68.9,68.3,67.3,66.2,92,90,86,29.83,29.79,5,1,5,0.00
2013-9-4,83.3,74.4,63.4,60.0,56.0,48.1,82,55,37,30.12,30.04,10,2,10,0.00
2013-9-5,84.1,69.3,57.2,61.1,55.9,48.7,91,65,39,30.16,30.05,15,2,15,0.00
2013-9-6,76.7,61.4,50.9,51.0,48.5,46.1,85,65,38,30.22,30.14,6,1,6,0.00
2013-9-7,83.2,65.1,48.8,60.4,53.0,44.9,92,68,35,30.16,29.96,7,1,7,0.00
2013-9-8,88.9,72.4,60.5,67.1,61.2,55.4,90,70,46,30.07,29.90,10,2,10,0.00
2013-9-9,77.8,68.6,60.8,63.9,58.3,50.0,84,70,54,30.22,30.07,8,2,8,0.00
2013-9-10,92.5,78.4,65.5,72.3,67.5,61.0,88,71,47,30.19,30.10,9,2,9,0.00
2013-9-11,93.4,80.9,71.1,74.4,69.9,66.9,91,71,47,30.18,30.03,8,2,8,0.00
2013-9-12,91.6,75.9,68.8,71.3,66.9,63.3,92,75,47,30.04,29.78,11,2,11,0.19
2013-9-13,76.0,67.6,57.4,58.9,52.9,46.9,82,61,40,29.99,29.78,16,3,16,0.01
2013-9-14,69.1,57.4,48.8,47.2,44.3,41.1,87,63,41,30.18,29.99,14,2,14,0.00
2013-9-15,77.4,61.2,45.7,57.1,50.6,43.2,92,71,45,30.23,30.08,11,2,11,0.00
2013-9-16,70.4,63.5,59.2,58.8,56.0,53.7,89,77,58,30.17,30.05,8,2,8,0.11
2013-9-17,69.5,57.3,43.4,47.5,41.7,37.2,87,59,33,30.43,30.31,9,2,9,0.00
2013-9-18,72.2,55.3,40.3,50.5,44.6,36.5,92,70,44,30.33,30.18,8,1,8,0.00
2013-9-19,77.0,62.0,48.1,59.0,52.9,44.7,91,74,51,30.20,30.08,8,1,8,0.01
2013-9-20,80.8,67.6,55.6,63.2,59.0,52.4,92,75,54,30.09,29.95,10,2,10,0.00
2013-9-21,71.3,64.6,60.1,64.0,60.7,58.0,93,87,75,29.96,29.71,11,2,11,0.63
2013-9-22,72.7,61.9,50.8,58.2,52.1,43.1,94,72,45,29.99,29.77,11,2,11,0.01
2013-9-23,67.1,56.4,47.2,47.1,44.6,41.6,85,66,46,30.11,29.99,11,1,11,0.00
2013-9-24,74.0,55.6,39.8,53.3,46.2,36.5,94,74,43,30.14,29.97,7,1,7,0.01
2013-9-25,75.6,57.1,43.0,54.3,47.2,40.1,92,73,34,30.02,29.90,8,1,8,0.00
2013-9-26,76.7,59.6,47.2,54.3,48.3,43.8,92,70,38,30.09,29.95,10,1,10,0.01
2013-9-27,74.7,58.1,45.9,56.9,49.9,41.9,93,76,49,30.24,30.09,6,1,6,0.00
2013-9-28,66.4,57.3,47.9,56.3,50.7,45.2,93,80,57,30.32,30.23,6,1,6,0.00
2013-9-29,74.2,57.2,44.3,55.9,48.0,41.8,94,74,44,30.23,30.07,7,1,7,0.01
2013-9-30,78.7,60.5,45.5,55.5,50.2,42.8,93,72,41,30.11,29.99,9,1,9,0.01
2013-10-1,82.1,65.6,55.8,60.9,55.4,51.7,91,72,41,30.10,30.00,12,1,12,0.00
2013-10-2,85.7,68.7,55.8,61.0,56.5,52.1,89,68,40,30.12,30.03,9,2,9,0.00
2013-10-3,83.9,68.8,56.5,63.9,59.1,52.4,90,73,48,30.15,30.05,10,1,10,0.00
2013-10-4,88.2,70.5,59.2,65.6,60.8,55.5,93,74,43,30.12,30.03,10,1,10,0.00
2013-10-5,88.4,74.1,63.2,66.4,62.4,59.3,90,69,41,30.12,30.01,8,1,8,0.00
2013-10-6,88.4,75.0,63.0,65.5,62.3,59.5,90,67,42,30.04,29.91,13,2,13,0.00
2013-10-7,72.9,64.4,53.3,66.4,57.2,43.3,92,78,57,30.10,29.74,14,2,14,0.56
2013-10-8,68.8,55.6,44.3,49.5,44.4,39.7,91,68,40,30.30,30.09,10,2,11,0.00
2013-10-9,60.1,53.5,43.9,49.0,45.8,41.0,92,76,59,30.35,30.25,8,2,10,0.02
2013-10-10,53.8,52.1,50.8,51.7,49.2,46.8,93,90,85,30.25,30.05,6,1,6,1.54
2013-10-11,59.6,55.7,52.6,57.6,53.6,50.2,93,93,92,30.05,29.99,6,1,6,1.14
2013-10-12,61.9,60.1,57.4,60.0,58.3,55.3,95,94,93,30.20,30.02,10,2,10,0.43
2013-10-13,58.3,57.1,56.2,56.4,55.4,54.6,95,94,92,30.33,30.19,9,2,9,0.57
2013-10-14,67.9,58.4,52.9,57.4,53.9,49.6,95,86,65,30.35,30.24,6,1,6,0.00
2013-10-15,71.8,57.1,48.6,60.9,51.6,47.3,96,84,51,30.25,30.09,6,1,6,0.01
2013-10-16,70.7,60.7,51.1,59.8,55.2,48.5,94,83,66,30.10,29.91,7,1,7,0.00
2013-10-17,76.3,63.9,58.0,64.3,58.5,48.0,92,83,56,29.91,29.71,12,2,12,0.24
2013-10-18,68.8,56.5,44.6,48.2,42.0,39.1,91,60,38,30.03,29.87,15,3,15,0.00
2013-10-19,63.2,51.1,40.7,52.7,45.5,37.1,93,82,65,29.99,29.76,12,1,12,0.11
2013-10-20,63.9,50.6,37.3,41.9,36.5,31.4,86,60,34,30.09,29.90,16,2,16,0.00
2013-10-21,68.8,52.9,37.4,45.0,40.3,34.6,90,66,38,30.12,29.93,11,2,11,0.00
2013-10-22,63.2,52.0,38.2,49.2,41.9,31.1,89,69,45,29.93,29.82,12,1,12,0.00
2013-10-23,52.4,43.9,35.8,39.8,35.5,30.9,89,73,53,29.92,29.69,10,2,10,0.00
2013-10-24,50.8,42.6,35.6,33.9,30.3,25.9,83,63,42,30.14,29.91,16,3,16,0.00
2013-10-25,52.4,40.3,31.0,33.7,28.7,24.8,85,65,43,30.31,30.13,18,2,18,0.00
2013-10-26,56.2,43.2,28.8,32.4,27.7,24.1,86,58,33,30.30,29.92,14,3,14,0.00
2013-10-27,62.1,48.3,36.0,38.9,33.3,29.4,81,58,34,30.13,29.96,14,2,14,0.00
2013-10-28,65.0,44.4,31.5,42.3,34.6,27.5,90,71,40,30.27,30.12,6,1,6,0.00
2013-10-29,63.7,46.8,33.5,43.6,37.4,29.7,91,72,46,30.38,30.26,7,1,7,0.00
2013-10-30,70.2,56.5,46.8,54.8,48.0,41.3,86,74,54,30.29,30.12,6,1,6,0.00
2013-10-31,67.0,61.0,53.6,58.1,54.8,49.5,90,81,70,30.15,29.71,8,1,8,0.01
2013-11-1,76.7,64.9,49.9,60.6,51.3,41.7,89,64,30,29.71,29.55,19,3,19,0.28
2013-11-2,50.0,47.8,46.1,43.9,40.6,34.7,88,76,59,29.91,29.67,10,1,10,0.00
2013-11-3,58.3,48.5,38.0,38.0,30.7,21.2,77,52,29,30.43,29.90,13,2,13,0.00
2013-11-4,45.7,36.0,26.6,27.2,23.5,19.1,76,61,43,30.61,30.43,9,1,9,0.00
2013-11-5,52.0,43.3,31.3,41.7,32.3,24.7,82,66,47,30.60,30.42,5,1,5,0.00
2013-11-6,71.3,57.1,44.1,50.8,46.2,39.2,89,68,47,30.43,30.03,12,2,12,0.00
2013-11-7,58.0,53.0,41.9,51.8,42.0,22.7,87,67,44,30.10,29.87,16,3,16,0.06
2013-11-8,51.3,42.9,32.4,28.6,25.1,20.9,69,50,35,30.29,30.07,16,3,16,0.00
2013-11-9,47.9,46.5,44.3,31.0,29.1,27.7,58,51,47,30.04,30.02,10,3,10,0.00
2013-11-10,60.8,47.6,36.5,36.0,29.2,25.3,83,51,31,30.24,29.98,19,4,19,0.00
2013-11-11,60.3,45.5,29.9,33.6,28.2,22.2,83,53,32,30.28,29.97,7,1,7,0.00
2013-11-12,51.5,42.3,35.6,37.5,28.2,20.2,71,58,42,30.27,29.97,16,3,16,0.00
2013-11-21,41.4,41.3,41.2,36.5,36.4,36.3,83,83,83,30.34,30.33,2,0,2,0.00
2013-11-22,65.7,55.2,41.4,51.5,46.5,36.3,85,73,57,30.33,30.01,10,1,10,0.00
2013-11-23,52.9,42.2,28.1,44.2,25.9,12.3,72,53,35,30.21,30.04,18,5,18,0.00
2013-11-24,31.0,25.4,20.7,16.4,6.7,3.4,69,45,33,30.48,30.21,19,5,19,0.00
2013-11-25,37.8,27.6,16.9,14.4,9.4,5.9,69,48,30,30.51,30.26,10,2,10,0.00
2013-11-26,36.7,34.1,32.8,31.6,25.8,13.1,93,74,40,30.27,29.63,11,2,11,1.09
2013-11-27,38.2,34.3,27.2,34.7,27.5,11.3,93,77,51,30.04,29.56,20,4,20,0.08
2013-11-28,39.2,30.6,25.0,19.9,16.2,11.4,67,55,42,30.41,30.04,17,3,17,0.00
2013-11-29,42.7,30.4,21.6,26.3,19.5,15.1,81,65,45,30.66,30.39,10,1,10,0.00
2013-11-30,36.4,27.8,18.4,23.3,18.8,13.2,85,69,54,30.65,30.30,7,1,7,0.00
2013-12-1,45.2,32.4,19.3,29.8,23.5,14.6,85,70,52,30.30,29.97,4,0,4,0.00
2013-12-2,45.0,38.9,35.3,33.6,30.4,27.5,79,71,61,29.97,29.83,5,1,5,0.00
2013-12-3,56.5,40.4,29.9,39.4,32.3,25.7,88,74,50,29.94,29.84,5,0,5,0.00
2013-12-4,58.0,43.7,30.2,47.0,37.8,27.2,93,80,60,30.01,29.92,7,1,7,0.00
2013-12-5,69.7,55.4,40.3,56.3,49.7,37.5,92,82,61,29.98,29.84,8,1,8,0.00
2013-12-6,60.1,45.2,36.5,57.1,42.6,34.4,92,90,83,30.10,29.80,11,2,11,1.38
2013-12-7,41.8,35.0,26.3,34.2,28.3,19.5,92,77,59,30.45,30.06,13,2,13,0.01
2013-12-8,28.3,25.1,23.8,26.1,21.3,18.7,92,86,76,30.46,30.19,7,2,7,0.00
2013-12-9,33.1,30.6,28.1,31.4,28.9,25.8,95,93,91,30.20,29.96,3,0,3,0.39
2013-12-10,40.3,32.6,27.7,34.7,26.6,15.1,95,80,52,30.09,29.86,19,2,19,0.18
2013-12-11,41.9,26.9,16.9,22.0,15.9,10.4,88,65,37,30.26,29.81,10,1,10,0.10
2013-12-12,34.2,27.2,17.1,21.1,11.6,5.8,78,53,32,30.30,30.10,14,3,14,0.00
2013-12-13,41.2,28.6,16.9,22.3,15.2,9.0,81,59,34,30.28,30.05,15,2,15,0.01
2013-12-14,34.2,31.8,28.4,31.1,27.5,20.6,92,84,70,30.29,29.74,9,1,9,0.16
2013-12-15,42.7,35.8,31.9,35.1,27.9,21.8,94,74,54,29.94,29.65,21,3,21,0.04
2013-12-16,35.6,32.5,27.7,26.0,24.5,22.5,83,73,63,30.15,29.93,10,2,10,0.00
2013-12-17,42.5,34.2,30.4,31.6,28.3,25.3,89,79,66,30.11,29.91,8,1,8,0.00
2013-12-18,42.7,32.9,24.1,27.8,21.4,17.3,90,64,43,30.19,29.99,12,2,12,0.00
2013-12-19,62.1,39.9,23.9,33.2,25.8,18.4,85,60,32,30.17,30.04,6,1,6,0.00
2013-12-20,56.9,45.6,36.7,36.7,31.7,27.0,72,59,40,30.08,29.97,6,1,6,0.00
2013-12-21,72.2,58.3,42.7,56.7,45.8,33.8,80,64,48,30.00,29.86,15,3,15,0.00
2013-12-22,70.9,62.5,56.2,60.9,56.5,51.4,93,81,68,30.00,29.79,17,3,17,0.26
2013-12-23,58.9,50.3,35.1,56.3,44.2,25.0,94,80,65,30.24,29.90,19,2,19,0.31
2013-12-24,39.6,30.2,19.8,25.4,18.0,6.8,76,61,43,30.47,30.20,18,3,18,0.00
2013-12-25,34.2,25.0,16.9,14.0,11.5,7.5,75,57,40,30.54,30.30,8,1,8,0.00
2013-12-26,45.4,32.0,20.2,24.3,17.0,10.2,75,55,34,30.34,30.20,20,2,20,0.00
2013-12-27,51.5,34.4,21.2,23.3,19.1,14.3,82,57,25,30.39,30.29,10,1,10,0.00
2013-12-28,57.2,40.2,25.6,27.8,23.7,19.0,82,55,28,30.32,30.10,9,2,10,0.00
2013-12-29,47.9,42.5,36.5,43.3,36.5,25.4,93,80,45,30.10,29.58,13,2,13,1.12
2013-12-30,46.3,38.1,28.3,38.3,29.8,21.5,90,72,64,30.16,29.83,14,2,14,0.00
2013-12-31,43.0,31.3,22.7,28.3,20.3,13.9,86,65,42,30.30,30.10,22,3,22,0.01
2014-1-1,48.4,34.1,21.2,26.7,22.0,14.8,82,63,40,30.37,30.08,7,1,7,0.00
2014-1-2,32.4,29.6,25.7,28.2,24.8,20.4,89,82,69,30.08,29.64,8,1,8,0.00